sensor_id;sensor_type;location;lat;lon;timestamp;P1;durP1;ratioP1;P2;durP2;ratioP2
11344;SDS011;5727;42.600;23.028;2022-12-29T00:01:34;66.60;;;41.67;;
11344;SDS011;5727;42.600;23.028;2022-12-29T00:04:01;65.17;;;43.17;;
11344;SDS011;5727;42.600;23.028;2022-12-29T00:06:29;60.27;;;39.70;;
11344;SDS011;5727;42.600;23.028;2022-12-29T00:08:56;62.93;;;40.47;;
11344;SDS011;5727;42.600;23.028;2022-12-29T00:11:25;65.93;;;41.33;;
11344;SDS011;5727;42.600;23.028;2022-12-29T00:13:53;60.43;;;41.20;;
11344;SDS011;5727;42.600;23.028;2022-12-29T00:16:37;61.17;;;39.43;;
11344;SDS011;5727;42.600;23.028;2022-12-29T00:19:07;52.57;;;35.97;;
11344;SDS011;5727;42.600;23.028;2022-12-29T00:21:54;51.77;;;34.17;;
11344;SDS011;5727;42.600;23.028;2022-12-29T00:24:43;51.70;;;35.20;;
11344;SDS011;5727;42.600;23.028;2022-12-29T00:27:30;52.53;;;34.80;;
11344;SDS011;5727;42.600;23.028;2022-12-29T00:30:16;55.00;;;37.77;;
11344;SDS011;5727;42.600;23.028;2022-12-29T00:33:07;56.37;;;37.20;;
11344;SDS011;5727;42.600;23.028;2022-12-29T00:35:53;58.03;;;38.50;;
11344;SDS011;5727;42.600;23.028;2022-12-29T00:38:23;60.00;;;38.60;;
11344;SDS011;5727;42.600;23.028;2022-12-29T00:41:08;55.90;;;35.40;;
11344;SDS011;5727;42.600;23.028;2022-12-29T00:43:53;50.80;;;33.43;;
11344;SDS011;5727;42.600;23.028;2022-12-29T00:46:32;47.43;;;32.40;;
11344;SDS011;5727;42.600;23.028;2022-12-29T00:48:59;48.00;;;32.73;;
11344;SDS011;5727;42.600;23.028;2022-12-29T00:51:43;42.17;;;31.40;;
11344;SDS011;5727;42.600;23.028;2022-12-29T00:54:11;44.20;;;30.60;;
11344;SDS011;5727;42.600;23.028;2022-12-29T00:56:38;46.30;;;31.43;;
11344;SDS011;5727;42.600;23.028;2022-12-29T00:59:07;44.33;;;30.83;;
11344;SDS011;5727;42.600;23.028;2022-12-29T01:01:35;46.67;;;33.10;;
11344;SDS011;5727;42.600;23.028;2022-12-29T01:04:02;46.57;;;31.87;;
11344;SDS011;5727;42.600;23.028;2022-12-29T01:06:29;47.37;;;32.40;;
11344;SDS011;5727;42.600;23.028;2022-12-29T01:08:57;46.37;;;33.20;;
11344;SDS011;5727;42.600;23.028;2022-12-29T01:11:41;46.40;;;33.07;;
11344;SDS011;5727;42.600;23.028;2022-12-29T01:14:09;49.43;;;32.47;;
11344;SDS011;5727;42.600;23.028;2022-12-29T01:16:36;44.83;;;32.53;;
11344;SDS011;5727;42.600;23.028;2022-12-29T01:19:03;46.23;;;32.60;;
11344;SDS011;5727;42.600;23.028;2022-12-29T01:21:32;48.73;;;31.67;;
11344;SDS011;5727;42.600;23.028;2022-12-29T01:23:59;45.63;;;31.73;;
11344;SDS011;5727;42.600;23.028;2022-12-29T01:26:25;44.10;;;31.73;;
11344;SDS011;5727;42.600;23.028;2022-12-29T01:28:52;47.53;;;31.77;;
11344;SDS011;5727;42.600;23.028;2022-12-29T01:31:20;44.90;;;31.17;;
11344;SDS011;5727;42.600;23.028;2022-12-29T01:33:47;48.27;;;31.80;;
11344;SDS011;5727;42.600;23.028;2022-12-29T01:36:14;49.50;;;32.87;;
11344;SDS011;5727;42.600;23.028;2022-12-29T01:38:42;51.03;;;34.80;;
11344;SDS011;5727;42.600;23.028;2022-12-29T01:41:09;47.20;;;32.57;;
11344;SDS011;5727;42.600;23.028;2022-12-29T01:43:39;57.67;;;34.80;;
11344;SDS011;5727;42.600;23.028;2022-12-29T01:46:07;51.93;;;35.80;;
11344;SDS011;5727;42.600;23.028;2022-12-29T01:48:46;55.23;;;38.53;;
11344;SDS011;5727;42.600;23.028;2022-12-29T01:51:14;49.87;;;37.57;;
11344;SDS011;5727;42.600;23.028;2022-12-29T01:53:42;50.70;;;34.13;;
11344;SDS011;5727;42.600;23.028;2022-12-29T01:56:11;48.00;;;32.63;;
11344;SDS011;5727;42.600;23.028;2022-12-29T01:58:41;51.17;;;34.00;;
11344;SDS011;5727;42.600;23.028;2022-12-29T02:01:12;49.80;;;33.87;;
11344;SDS011;5727;42.600;23.028;2022-12-29T02:03:41;47.30;;;32.93;;
11344;SDS011;5727;42.600;23.028;2022-12-29T02:06:10;49.50;;;34.20;;
11344;SDS011;5727;42.600;23.028;2022-12-29T02:08:41;46.90;;;33.17;;
11344;SDS011;5727;42.600;23.028;2022-12-29T02:11:11;47.00;;;34.57;;
11344;SDS011;5727;42.600;23.028;2022-12-29T02:13:38;52.53;;;33.53;;
11344;SDS011;5727;42.600;23.028;2022-12-29T02:16:09;55.33;;;35.30;;
11344;SDS011;5727;42.600;23.028;2022-12-29T02:18:47;53.83;;;34.27;;
11344;SDS011;5727;42.600;23.028;2022-12-29T02:33:21;50.93;;;32.17;;
11344;SDS011;5727;42.600;23.028;2022-12-29T02:35:57;46.83;;;31.73;;
11344;SDS011;5727;42.600;23.028;2022-12-29T02:38:39;48.43;;;31.57;;
11344;SDS011;5727;42.600;23.028;2022-12-29T02:41:20;44.53;;;29.67;;
11344;SDS011;5727;42.600;23.028;2022-12-29T02:43:56;43.23;;;29.37;;
11344;SDS011;5727;42.600;23.028;2022-12-29T02:46:33;40.63;;;28.23;;
11344;SDS011;5727;42.600;23.028;2022-12-29T02:49:05;42.27;;;28.57;;
11344;SDS011;5727;42.600;23.028;2022-12-29T02:51:39;39.23;;;27.03;;
11344;SDS011;5727;42.600;23.028;2022-12-29T02:54:12;42.50;;;27.87;;
11344;SDS011;5727;42.600;23.028;2022-12-29T02:56:59;44.83;;;31.70;;
11344;SDS011;5727;42.600;23.028;2022-12-29T02:59:26;48.87;;;32.27;;
11344;SDS011;5727;42.600;23.028;2022-12-29T03:02:03;43.70;;;30.40;;
11344;SDS011;5727;42.600;23.028;2022-12-29T03:04:45;49.27;;;32.23;;
11344;SDS011;5727;42.600;23.028;2022-12-29T03:07:32;49.60;;;33.53;;
11344;SDS011;5727;42.600;23.028;2022-12-29T03:10:07;47.57;;;32.90;;
11344;SDS011;5727;42.600;23.028;2022-12-29T03:12:41;52.93;;;34.50;;
11344;SDS011;5727;42.600;23.028;2022-12-29T03:15:33;53.73;;;36.43;;
11344;SDS011;5727;42.600;23.028;2022-12-29T03:18:25;48.57;;;33.83;;
11344;SDS011;5727;42.600;23.028;2022-12-29T03:21:03;55.20;;;34.63;;
11344;SDS011;5727;42.600;23.028;2022-12-29T03:23:34;53.63;;;35.97;;
11344;SDS011;5727;42.600;23.028;2022-12-29T03:26:06;48.27;;;34.60;;
11344;SDS011;5727;42.600;23.028;2022-12-29T03:28:35;51.87;;;35.37;;
11344;SDS011;5727;42.600;23.028;2022-12-29T03:31:04;46.00;;;34.00;;
11344;SDS011;5727;42.600;23.028;2022-12-29T03:33:36;55.40;;;36.83;;
11344;SDS011;5727;42.600;23.028;2022-12-29T03:36:05;46.57;;;31.87;;
11344;SDS011;5727;42.600;23.028;2022-12-29T03:38:37;47.27;;;33.13;;
11344;SDS011;5727;42.600;23.028;2022-12-29T03:41:10;47.83;;;32.37;;
11344;SDS011;5727;42.600;23.028;2022-12-29T03:43:40;41.93;;;30.73;;
11344;SDS011;5727;42.600;23.028;2022-12-29T03:46:07;44.80;;;30.50;;
11344;SDS011;5727;42.600;23.028;2022-12-29T03:48:35;40.40;;;29.63;;
11344;SDS011;5727;42.600;23.028;2022-12-29T03:51:02;42.90;;;30.33;;
11344;SDS011;5727;42.600;23.028;2022-12-29T03:53:29;36.87;;;26.83;;
11344;SDS011;5727;42.600;23.028;2022-12-29T03:55:56;42.40;;;29.17;;
11344;SDS011;5727;42.600;23.028;2022-12-29T03:58:22;44.87;;;27.43;;
11344;SDS011;5727;42.600;23.028;2022-12-29T04:00:49;38.50;;;26.03;;
11344;SDS011;5727;42.600;23.028;2022-12-29T04:03:16;37.17;;;27.97;;
11344;SDS011;5727;42.600;23.028;2022-12-29T04:05:44;40.97;;;28.50;;
11344;SDS011;5727;42.600;23.028;2022-12-29T04:08:10;34.83;;;26.70;;
11344;SDS011;5727;42.600;23.028;2022-12-29T04:10:37;39.60;;;26.57;;
11344;SDS011;5727;42.600;23.028;2022-12-29T04:13:04;35.70;;;25.67;;
11344;SDS011;5727;42.600;23.028;2022-12-29T04:15:31;35.40;;;25.50;;
11344;SDS011;5727;42.600;23.028;2022-12-29T04:17:57;39.70;;;25.43;;
11344;SDS011;5727;42.600;23.028;2022-12-29T04:20:24;33.93;;;25.13;;
11344;SDS011;5727;42.600;23.028;2022-12-29T04:23:10;36.50;;;24.40;;
11344;SDS011;5727;42.600;23.028;2022-12-29T04:25:36;32.33;;;23.57;;
11344;SDS011;5727;42.600;23.028;2022-12-29T04:28:03;38.30;;;25.47;;
11344;SDS011;5727;42.600;23.028;2022-12-29T04:30:30;37.77;;;26.67;;
11344;SDS011;5727;42.600;23.028;2022-12-29T04:32:57;38.80;;;25.50;;
11344;SDS011;5727;42.600;23.028;2022-12-29T04:35:23;36.13;;;25.30;;
11344;SDS011;5727;42.600;23.028;2022-12-29T04:37:50;37.00;;;26.87;;
11344;SDS011;5727;42.600;23.028;2022-12-29T04:40:18;35.50;;;26.67;;
11344;SDS011;5727;42.600;23.028;2022-12-29T04:42:45;42.50;;;26.73;;
11344;SDS011;5727;42.600;23.028;2022-12-29T04:45:12;35.57;;;26.00;;
11344;SDS011;5727;42.600;23.028;2022-12-29T04:47:38;37.83;;;26.07;;
11344;SDS011;5727;42.600;23.028;2022-12-29T04:50:05;36.83;;;25.60;;
11344;SDS011;5727;42.600;23.028;2022-12-29T04:52:33;36.80;;;24.30;;
11344;SDS011;5727;42.600;23.028;2022-12-29T04:55:00;36.40;;;26.77;;
11344;SDS011;5727;42.600;23.028;2022-12-29T04:57:28;37.00;;;27.50;;
11344;SDS011;5727;42.600;23.028;2022-12-29T04:59:54;39.00;;;28.27;;
11344;SDS011;5727;42.600;23.028;2022-12-29T05:02:21;39.60;;;28.83;;
11344;SDS011;5727;42.600;23.028;2022-12-29T05:04:48;39.67;;;28.13;;
11344;SDS011;5727;42.600;23.028;2022-12-29T05:07:15;40.57;;;28.97;;
11344;SDS011;5727;42.600;23.028;2022-12-29T05:09:42;44.60;;;28.43;;
11344;SDS011;5727;42.600;23.028;2022-12-29T05:12:09;39.90;;;28.10;;
11344;SDS011;5727;42.600;23.028;2022-12-29T05:14:37;39.77;;;29.27;;
11344;SDS011;5727;42.600;23.028;2022-12-29T05:20:25;40.87;;;30.17;;
11344;SDS011;5727;42.600;23.028;2022-12-29T05:22:52;39.27;;;27.83;;
11344;SDS011;5727;42.600;23.028;2022-12-29T05:25:18;40.77;;;29.43;;
11344;SDS011;5727;42.600;23.028;2022-12-29T05:27:45;40.53;;;29.23;;
11344;SDS011;5727;42.600;23.028;2022-12-29T05:30:13;39.63;;;29.40;;
11344;SDS011;5727;42.600;23.028;2022-12-29T05:32:40;53.03;;;35.87;;
11344;SDS011;5727;42.600;23.028;2022-12-29T05:35:07;54.53;;;35.80;;
11344;SDS011;5727;42.600;23.028;2022-12-29T05:37:34;48.63;;;34.53;;
11344;SDS011;5727;42.600;23.028;2022-12-29T05:40:01;66.40;;;40.17;;
11344;SDS011;5727;42.600;23.028;2022-12-29T05:42:28;65.80;;;41.00;;
11344;SDS011;5727;42.600;23.028;2022-12-29T05:44:55;60.53;;;40.77;;
11344;SDS011;5727;42.600;23.028;2022-12-29T05:47:23;60.47;;;39.13;;
11344;SDS011;5727;42.600;23.028;2022-12-29T05:49:50;57.77;;;38.97;;
11344;SDS011;5727;42.600;23.028;2022-12-29T05:55:08;59.50;;;39.30;;
11344;SDS011;5727;42.600;23.028;2022-12-29T05:57:35;68.33;;;42.23;;
11344;SDS011;5727;42.600;23.028;2022-12-29T06:00:02;58.53;;;39.20;;
11344;SDS011;5727;42.600;23.028;2022-12-29T06:02:31;50.17;;;33.83;;
11344;SDS011;5727;42.600;23.028;2022-12-29T06:04:58;35.60;;;25.63;;
11344;SDS011;5727;42.600;23.028;2022-12-29T06:07:24;31.70;;;21.80;;
11344;SDS011;5727;42.600;23.028;2022-12-29T06:09:51;29.40;;;22.30;;
11344;SDS011;5727;42.600;23.028;2022-12-29T06:12:18;31.10;;;23.17;;
11344;SDS011;5727;42.600;23.028;2022-12-29T06:14:45;35.17;;;23.73;;
11344;SDS011;5727;42.600;23.028;2022-12-29T06:17:12;33.80;;;24.37;;
11344;SDS011;5727;42.600;23.028;2022-12-29T06:19:40;34.13;;;24.73;;
11344;SDS011;5727;42.600;23.028;2022-12-29T06:22:06;33.73;;;25.63;;
11344;SDS011;5727;42.600;23.028;2022-12-29T06:24:33;34.47;;;25.03;;
11344;SDS011;5727;42.600;23.028;2022-12-29T06:27:00;33.50;;;24.10;;
11344;SDS011;5727;42.600;23.028;2022-12-29T06:29:27;29.90;;;22.97;;
11344;SDS011;5727;42.600;23.028;2022-12-29T06:31:53;35.00;;;23.73;;
11344;SDS011;5727;42.600;23.028;2022-12-29T06:34:22;28.90;;;22.53;;
11344;SDS011;5727;42.600;23.028;2022-12-29T06:36:51;29.87;;;23.30;;
11344;SDS011;5727;42.600;23.028;2022-12-29T06:39:18;32.13;;;23.23;;
11344;SDS011;5727;42.600;23.028;2022-12-29T06:41:44;37.53;;;22.83;;
11344;SDS011;5727;42.600;23.028;2022-12-29T06:44:11;33.37;;;23.27;;
11344;SDS011;5727;42.600;23.028;2022-12-29T06:46:38;33.57;;;23.80;;
11344;SDS011;5727;42.600;23.028;2022-12-29T06:49:05;34.23;;;24.63;;
11344;SDS011;5727;42.600;23.028;2022-12-29T06:51:31;35.23;;;25.17;;
11344;SDS011;5727;42.600;23.028;2022-12-29T06:54:00;33.60;;;25.30;;
11344;SDS011;5727;42.600;23.028;2022-12-29T06:56:26;33.90;;;24.10;;
11344;SDS011;5727;42.600;23.028;2022-12-29T06:58:53;34.83;;;24.97;;
11344;SDS011;5727;42.600;23.028;2022-12-29T07:01:20;33.93;;;24.53;;
11344;SDS011;5727;42.600;23.028;2022-12-29T07:03:47;33.30;;;25.00;;
11344;SDS011;5727;42.600;23.028;2022-12-29T07:06:14;35.00;;;25.27;;
11344;SDS011;5727;42.600;23.028;2022-12-29T07:08:40;36.53;;;25.33;;
11344;SDS011;5727;42.600;23.028;2022-12-29T07:11:08;34.50;;;26.43;;
11344;SDS011;5727;42.600;23.028;2022-12-29T07:13:37;29.73;;;23.53;;
11344;SDS011;5727;42.600;23.028;2022-12-29T07:16:04;35.87;;;26.47;;
11344;SDS011;5727;42.600;23.028;2022-12-29T07:18:32;32.73;;;25.03;;
11344;SDS011;5727;42.600;23.028;2022-12-29T07:20:59;34.13;;;24.87;;
11344;SDS011;5727;42.600;23.028;2022-12-29T07:23:26;32.57;;;24.90;;
11344;SDS011;5727;42.600;23.028;2022-12-29T07:25:58;32.27;;;25.00;;
11344;SDS011;5727;42.600;23.028;2022-12-29T07:28:27;38.83;;;27.47;;
11344;SDS011;5727;42.600;23.028;2022-12-29T07:30:54;36.77;;;26.97;;
11344;SDS011;5727;42.600;23.028;2022-12-29T07:33:21;35.00;;;26.10;;
11344;SDS011;5727;42.600;23.028;2022-12-29T07:35:47;34.83;;;24.80;;
11344;SDS011;5727;42.600;23.028;2022-12-29T07:38:14;33.87;;;24.70;;
11344;SDS011;5727;42.600;23.028;2022-12-29T07:40:41;36.03;;;26.03;;
11344;SDS011;5727;42.600;23.028;2022-12-29T07:43:08;37.27;;;25.97;;
11344;SDS011;5727;42.600;23.028;2022-12-29T07:45:36;37.00;;;26.07;;
11344;SDS011;5727;42.600;23.028;2022-12-29T07:48:03;32.93;;;25.00;;
11344;SDS011;5727;42.600;23.028;2022-12-29T07:50:32;35.23;;;26.00;;
11344;SDS011;5727;42.600;23.028;2022-12-29T07:52:59;33.67;;;25.03;;
11344;SDS011;5727;42.600;23.028;2022-12-29T07:55:26;36.17;;;24.87;;
11344;SDS011;5727;42.600;23.028;2022-12-29T07:57:53;35.43;;;24.43;;
11344;SDS011;5727;42.600;23.028;2022-12-29T08:00:20;35.27;;;26.50;;
11344;SDS011;5727;42.600;23.028;2022-12-29T08:02:48;33.60;;;25.37;;
11344;SDS011;5727;42.600;23.028;2022-12-29T08:05:15;29.43;;;24.27;;
11344;SDS011;5727;42.600;23.028;2022-12-29T08:07:42;32.20;;;25.33;;
11344;SDS011;5727;42.600;23.028;2022-12-29T08:10:09;30.50;;;23.37;;
11344;SDS011;5727;42.600;23.028;2022-12-29T08:12:37;31.60;;;24.17;;
11344;SDS011;5727;42.600;23.028;2022-12-29T08:15:05;29.40;;;23.13;;
11344;SDS011;5727;42.600;23.028;2022-12-29T08:17:33;31.33;;;23.40;;
11344;SDS011;5727;42.600;23.028;2022-12-29T08:20:01;32.80;;;24.37;;
11344;SDS011;5727;42.600;23.028;2022-12-29T08:22:29;31.70;;;23.60;;
11344;SDS011;5727;42.600;23.028;2022-12-29T08:24:56;31.90;;;23.67;;
11344;SDS011;5727;42.600;23.028;2022-12-29T08:27:23;30.97;;;23.47;;
11344;SDS011;5727;42.600;23.028;2022-12-29T08:29:49;29.13;;;23.20;;
11344;SDS011;5727;42.600;23.028;2022-12-29T08:32:16;30.53;;;23.97;;
11344;SDS011;5727;42.600;23.028;2022-12-29T08:34:43;27.57;;;21.80;;
11344;SDS011;5727;42.600;23.028;2022-12-29T08:37:12;32.57;;;22.30;;
11344;SDS011;5727;42.600;23.028;2022-12-29T08:39:38;30.87;;;23.20;;
11344;SDS011;5727;42.600;23.028;2022-12-29T08:42:05;31.27;;;23.07;;
11344;SDS011;5727;42.600;23.028;2022-12-29T08:44:32;28.90;;;22.97;;
11344;SDS011;5727;42.600;23.028;2022-12-29T08:46:59;29.13;;;22.73;;
11344;SDS011;5727;42.600;23.028;2022-12-29T08:49:25;30.30;;;21.63;;
11344;SDS011;5727;42.600;23.028;2022-12-29T08:51:52;28.13;;;23.60;;
11344;SDS011;5727;42.600;23.028;2022-12-29T08:54:20;27.43;;;22.53;;
11344;SDS011;5727;42.600;23.028;2022-12-29T08:56:47;30.30;;;21.97;;
11344;SDS011;5727;42.600;23.028;2022-12-29T08:59:14;31.63;;;23.40;;
11344;SDS011;5727;42.600;23.028;2022-12-29T09:01:40;31.93;;;23.83;;
11344;SDS011;5727;42.600;23.028;2022-12-29T09:04:07;35.97;;;24.63;;
11344;SDS011;5727;42.600;23.028;2022-12-29T09:06:34;31.47;;;24.20;;
11344;SDS011;5727;42.600;23.028;2022-12-29T09:09:01;34.13;;;25.20;;
11344;SDS011;5727;42.600;23.028;2022-12-29T09:11:29;32.50;;;24.97;;
11344;SDS011;5727;42.600;23.028;2022-12-29T09:13:56;34.87;;;26.63;;
11344;SDS011;5727;42.600;23.028;2022-12-29T09:16:24;33.63;;;25.00;;
11344;SDS011;5727;42.600;23.028;2022-12-29T09:18:52;30.77;;;24.47;;
11344;SDS011;5727;42.600;23.028;2022-12-29T09:21:19;29.53;;;24.07;;
11344;SDS011;5727;42.600;23.028;2022-12-29T09:23:45;31.37;;;24.10;;
11344;SDS011;5727;42.600;23.028;2022-12-29T09:26:13;32.03;;;23.87;;
11344;SDS011;5727;42.600;23.028;2022-12-29T09:28:41;27.07;;;22.33;;
11344;SDS011;5727;42.600;23.028;2022-12-29T09:31:09;28.90;;;22.57;;
11344;SDS011;5727;42.600;23.028;2022-12-29T09:33:36;33.90;;;24.60;;
11344;SDS011;5727;42.600;23.028;2022-12-29T09:36:03;33.27;;;23.83;;
11344;SDS011;5727;42.600;23.028;2022-12-29T09:38:30;30.47;;;24.07;;
11344;SDS011;5727;42.600;23.028;2022-12-29T09:40:59;34.17;;;24.00;;
11344;SDS011;5727;42.600;23.028;2022-12-29T09:46:31;28.70;;;22.83;;
11344;SDS011;5727;42.600;23.028;2022-12-29T09:49:05;26.17;;;21.40;;
11344;SDS011;5727;42.600;23.028;2022-12-29T09:51:38;28.90;;;23.33;;
11344;SDS011;5727;42.600;23.028;2022-12-29T09:54:17;30.40;;;23.10;;
11344;SDS011;5727;42.600;23.028;2022-12-29T09:56:49;30.00;;;23.33;;
11344;SDS011;5727;42.600;23.028;2022-12-29T09:59:20;33.33;;;25.43;;
11344;SDS011;5727;42.600;23.028;2022-12-29T10:01:53;31.10;;;24.90;;
11344;SDS011;5727;42.600;23.028;2022-12-29T10:04:25;28.40;;;23.00;;
11344;SDS011;5727;42.600;23.028;2022-12-29T10:06:54;33.77;;;25.70;;
11344;SDS011;5727;42.600;23.028;2022-12-29T10:09:24;30.83;;;25.10;;
11344;SDS011;5727;42.600;23.028;2022-12-29T10:11:58;28.83;;;23.83;;
11344;SDS011;5727;42.600;23.028;2022-12-29T10:14:45;34.43;;;24.90;;
11344;SDS011;5727;42.600;23.028;2022-12-29T10:17:25;31.80;;;23.97;;
11344;SDS011;5727;42.600;23.028;2022-12-29T10:20:12;25.80;;;22.00;;
11344;SDS011;5727;42.600;23.028;2022-12-29T10:22:51;33.47;;;24.87;;
11344;SDS011;5727;42.600;23.028;2022-12-29T10:25:30;31.40;;;23.93;;
11344;SDS011;5727;42.600;23.028;2022-12-29T10:28:04;31.30;;;23.13;;
11344;SDS011;5727;42.600;23.028;2022-12-29T10:30:39;32.00;;;24.37;;
11344;SDS011;5727;42.600;23.028;2022-12-29T10:33:08;29.80;;;23.47;;
11344;SDS011;5727;42.600;23.028;2022-12-29T10:35:43;31.20;;;24.23;;
11344;SDS011;5727;42.600;23.028;2022-12-29T10:38:12;36.47;;;25.10;;
11344;SDS011;5727;42.600;23.028;2022-12-29T10:40:46;38.23;;;27.10;;
11344;SDS011;5727;42.600;23.028;2022-12-29T10:43:21;31.67;;;26.07;;
11344;SDS011;5727;42.600;23.028;2022-12-29T10:45:52;32.70;;;25.20;;
11344;SDS011;5727;42.600;23.028;2022-12-29T10:48:22;34.87;;;25.43;;
11344;SDS011;5727;42.600;23.028;2022-12-29T10:50:51;36.07;;;28.20;;
11344;SDS011;5727;42.600;23.028;2022-12-29T10:53:23;41.80;;;31.27;;
11344;SDS011;5727;42.600;23.028;2022-12-29T10:55:53;37.40;;;28.40;;
11344;SDS011;5727;42.600;23.028;2022-12-29T10:58:22;34.90;;;26.67;;
11344;SDS011;5727;42.600;23.028;2022-12-29T11:00:51;36.73;;;26.80;;
11344;SDS011;5727;42.600;23.028;2022-12-29T11:06:26;36.73;;;25.60;;
11344;SDS011;5727;42.600;23.028;2022-12-29T11:08:56;36.50;;;27.43;;
11344;SDS011;5727;42.600;23.028;2022-12-29T11:11:25;36.53;;;24.97;;
11344;SDS011;5727;42.600;23.028;2022-12-29T11:13:58;29.37;;;23.90;;
11344;SDS011;5727;42.600;23.028;2022-12-29T11:16:39;34.60;;;23.70;;
11344;SDS011;5727;42.600;23.028;2022-12-29T11:19:19;31.90;;;25.20;;
11344;SDS011;5727;42.600;23.028;2022-12-29T11:21:48;32.27;;;25.03;;
11344;SDS011;5727;42.600;23.028;2022-12-29T11:24:18;33.20;;;25.87;;
11344;SDS011;5727;42.600;23.028;2022-12-29T11:26:48;35.90;;;26.43;;
11344;SDS011;5727;42.600;23.028;2022-12-29T11:29:25;30.50;;;25.43;;
11344;SDS011;5727;42.600;23.028;2022-12-29T11:31:55;37.43;;;30.00;;
11344;SDS011;5727;42.600;23.028;2022-12-29T11:34:24;37.17;;;27.23;;
11344;SDS011;5727;42.600;23.028;2022-12-29T11:36:53;36.73;;;26.80;;
11344;SDS011;5727;42.600;23.028;2022-12-29T11:39:28;30.57;;;24.53;;
11344;SDS011;5727;42.600;23.028;2022-12-29T11:41:58;31.47;;;23.80;;
11344;SDS011;5727;42.600;23.028;2022-12-29T11:44:27;30.07;;;24.03;;
11344;SDS011;5727;42.600;23.028;2022-12-29T11:47:03;30.10;;;22.97;;
11344;SDS011;5727;42.600;23.028;2022-12-29T11:49:35;26.40;;;20.80;;
11344;SDS011;5727;42.600;23.028;2022-12-29T11:52:02;27.03;;;22.50;;
11344;SDS011;5727;42.600;23.028;2022-12-29T11:54:31;31.67;;;23.17;;
11344;SDS011;5727;42.600;23.028;2022-12-29T11:57:08;28.53;;;21.53;;
11344;SDS011;5727;42.600;23.028;2022-12-29T11:59:40;27.30;;;21.80;;
11344;SDS011;5727;42.600;23.028;2022-12-29T12:02:13;29.43;;;23.50;;
11344;SDS011;5727;42.600;23.028;2022-12-29T12:04:58;32.33;;;22.43;;
11344;SDS011;5727;42.600;23.028;2022-12-29T12:07:34;29.67;;;22.93;;
11344;SDS011;5727;42.600;23.028;2022-12-29T12:10:05;30.03;;;22.73;;
11344;SDS011;5727;42.600;23.028;2022-12-29T12:12:38;31.93;;;22.70;;
11344;SDS011;5727;42.600;23.028;2022-12-29T12:15:13;28.40;;;21.33;;
11344;SDS011;5727;42.600;23.028;2022-12-29T12:17:47;23.63;;;18.43;;
11344;SDS011;5727;42.600;23.028;2022-12-29T12:20:18;25.30;;;17.37;;
11344;SDS011;5727;42.600;23.028;2022-12-29T12:22:51;21.87;;;16.97;;
11344;SDS011;5727;42.600;23.028;2022-12-29T12:25:27;21.80;;;17.33;;
11344;SDS011;5727;42.600;23.028;2022-12-29T12:27:58;25.17;;;18.40;;
11344;SDS011;5727;42.600;23.028;2022-12-29T12:30:35;24.97;;;17.80;;
11344;SDS011;5727;42.600;23.028;2022-12-29T12:33:10;32.83;;;23.70;;
11344;SDS011;5727;42.600;23.028;2022-12-29T12:35:46;31.17;;;22.90;;
11344;SDS011;5727;42.600;23.028;2022-12-29T12:38:20;33.93;;;23.50;;
11344;SDS011;5727;42.600;23.028;2022-12-29T12:41:04;36.33;;;24.97;;
11344;SDS011;5727;42.600;23.028;2022-12-29T12:43:37;29.47;;;23.33;;
11344;SDS011;5727;42.600;23.028;2022-12-29T12:49:18;32.93;;;23.57;;
11344;SDS011;5727;42.600;23.028;2022-12-29T12:51:59;27.33;;;20.63;;
11344;SDS011;5727;42.600;23.028;2022-12-29T12:54:38;23.90;;;17.07;;
11344;SDS011;5727;42.600;23.028;2022-12-29T12:57:17;15.93;;;13.27;;
11344;SDS011;5727;42.600;23.028;2022-12-29T12:59:55;18.97;;;13.30;;
11344;SDS011;5727;42.600;23.028;2022-12-29T13:02:29;18.33;;;12.77;;
11344;SDS011;5727;42.600;23.028;2022-12-29T13:07:55;11.73;;;10.30;;
11344;SDS011;5727;42.600;23.028;2022-12-29T13:10:40;14.67;;;10.30;;
11344;SDS011;5727;42.600;23.028;2022-12-29T13:16:10;11.90;;;8.27;;
11344;SDS011;5727;42.600;23.028;2022-12-29T13:18:44;12.57;;;9.07;;
11344;SDS011;5727;42.600;23.028;2022-12-29T13:21:21;12.93;;;9.70;;
11344;SDS011;5727;42.600;23.028;2022-12-29T13:23:59;10.97;;;8.30;;
11344;SDS011;5727;42.600;23.028;2022-12-29T13:26:32;9.47;;;8.47;;
11344;SDS011;5727;42.600;23.028;2022-12-29T13:29:03;10.40;;;8.70;;
11344;SDS011;5727;42.600;23.028;2022-12-29T13:31:40;11.03;;;8.53;;
11344;SDS011;5727;42.600;23.028;2022-12-29T13:34:15;11.47;;;9.83;;
11344;SDS011;5727;42.600;23.028;2022-12-29T13:36:51;10.70;;;8.87;;
11344;SDS011;5727;42.600;23.028;2022-12-29T13:39:22;11.43;;;8.10;;
11344;SDS011;5727;42.600;23.028;2022-12-29T13:41:53;9.30;;;7.40;;
11344;SDS011;5727;42.600;23.028;2022-12-29T13:44:22;7.53;;;6.73;;
11344;SDS011;5727;42.600;23.028;2022-12-29T13:46:53;13.63;;;9.53;;
11344;SDS011;5727;42.600;23.028;2022-12-29T13:49:24;11.37;;;9.40;;
11344;SDS011;5727;42.600;23.028;2022-12-29T13:51:55;9.17;;;7.53;;
11344;SDS011;5727;42.600;23.028;2022-12-29T13:54:26;11.27;;;8.60;;
11344;SDS011;5727;42.600;23.028;2022-12-29T13:57:02;11.07;;;7.67;;
11344;SDS011;5727;42.600;23.028;2022-12-29T13:59:36;10.87;;;8.80;;
11344;SDS011;5727;42.600;23.028;2022-12-29T14:02:13;11.63;;;8.83;;
11344;SDS011;5727;42.600;23.028;2022-12-29T14:04:55;8.47;;;7.50;;
11344;SDS011;5727;42.600;23.028;2022-12-29T14:07:25;10.83;;;7.53;;
11344;SDS011;5727;42.600;23.028;2022-12-29T14:09:52;9.83;;;7.63;;
11344;SDS011;5727;42.600;23.028;2022-12-29T14:12:21;10.10;;;8.20;;
11344;SDS011;5727;42.600;23.028;2022-12-29T14:15:03;9.27;;;7.80;;
11344;SDS011;5727;42.600;23.028;2022-12-29T14:17:33;8.87;;;6.97;;
11344;SDS011;5727;42.600;23.028;2022-12-29T14:19:59;9.43;;;7.73;;
11344;SDS011;5727;42.600;23.028;2022-12-29T14:22:28;8.90;;;7.50;;
11344;SDS011;5727;42.600;23.028;2022-12-29T14:24:55;9.23;;;7.67;;
11344;SDS011;5727;42.600;23.028;2022-12-29T14:33:15;9.30;;;7.30;;
11344;SDS011;5727;42.600;23.028;2022-12-29T14:35:43;10.50;;;8.13;;
11344;SDS011;5727;42.600;23.028;2022-12-29T14:38:16;10.80;;;8.40;;
11344;SDS011;5727;42.600;23.028;2022-12-29T14:40:45;9.40;;;7.30;;
11344;SDS011;5727;42.600;23.028;2022-12-29T14:43:13;9.27;;;7.40;;
11344;SDS011;5727;42.600;23.028;2022-12-29T14:45:51;11.90;;;9.10;;
11344;SDS011;5727;42.600;23.028;2022-12-29T14:51:21;11.43;;;9.53;;
11344;SDS011;5727;42.600;23.028;2022-12-29T14:53:57;13.20;;;10.57;;
11344;SDS011;5727;42.600;23.028;2022-12-29T14:56:24;14.50;;;11.10;;
11344;SDS011;5727;42.600;23.028;2022-12-29T14:58:54;13.53;;;9.40;;
11344;SDS011;5727;42.600;23.028;2022-12-29T15:01:38;7.40;;;6.70;;
11344;SDS011;5727;42.600;23.028;2022-12-29T15:04:15;7.00;;;6.30;;
11344;SDS011;5727;42.600;23.028;2022-12-29T15:06:44;10.57;;;8.40;;
11344;SDS011;5727;42.600;23.028;2022-12-29T15:09:15;13.83;;;10.33;;
11344;SDS011;5727;42.600;23.028;2022-12-29T15:11:51;18.43;;;12.83;;
11344;SDS011;5727;42.600;23.028;2022-12-29T15:14:30;22.00;;;16.60;;
11344;SDS011;5727;42.600;23.028;2022-12-29T15:16:58;19.40;;;15.70;;
11344;SDS011;5727;42.600;23.028;2022-12-29T15:19:26;33.33;;;18.63;;
11344;SDS011;5727;42.600;23.028;2022-12-29T15:21:54;56.53;;;26.17;;
11344;SDS011;5727;42.600;23.028;2022-12-29T15:24:23;34.10;;;20.03;;
11344;SDS011;5727;42.600;23.028;2022-12-29T15:26:50;38.67;;;24.33;;